Aérodrome :
LOGIN :

S'inscrire | Disclaimer

   EN    FR    IT 

 










Légende :    VFR   VFR Marginal   IFR   IFR Intensif   IFR Très Intensif
Visi : 
Plafond : 
>= 8 km
>= 3000ft
5 à 8 km
1000 à 3000 ft
1500m à 5 km
500 à 1000 ft
800 à 1500m
200 à 500 ft
< 800m
< 200 ft
Symboles :   Orages  Brouillard  Fortes neiges  Fortes précipitations  Vent > 20 kt
SIGMETs :   Divers  Orages  Givrage  Turbulence  Onde Orograph.  Cendres Volcan.






- Altitude de l'aérodrome : 15 ft
- Code IATA : FCO


LIRF - Roma Leonardo da Vinci Fiumicino

DERNIER METAR :
  • 140850Z 09005KT 070V130 9999 FEW030 BKN055 14/11 Q1007 NOSIG

METARs EXPIRÉS :
  • 140820Z 10005KT 9999 FEW050 SCT055 13/11 Q1007 NOSIG
  • 140750Z 10006KT 9999 FEW015 SCT050 13/10 Q1007 NOSIG
  • 140720Z 07003KT 9999 VCSH FEW015 SCT030 11/10 Q1007 NOSIG
  • 140650Z 09004KT 9999 FEW015 SCT030 11/10 Q1007 NOSIG
  • 140620Z 06003KT 9999 SCT030 10/10 Q1007 TEMPO 4000 RA

TAF TAF LIRF
Valide du 14 à 06h jusqu'au 15 à 12h UTC


140500Z 1406/1512 VRB06KT 9999 SCT030
TEMPO 1406/1415 4000 SHRA
BECMG 1411/1413 15015KT
TEMPO 1418/1506 15018G30KT
TEMPO 1500/1506 4000 RA
TEMPO 1506/1512 4000 TSRA



MET'MAP, la Météo Aéronautique d'un coup d'oeil ! - Copyright ORBIFLY Décembre 2007 - Disclaimer

ORBIFLY MET'MAP TEAM :

Programmation & Développement : Alexandra Zaïnal
Conception & Développement : Baudouin d'Aumeries
Co-Programmation & Développement : Marc-Olivier Méhu
Soutien technique & logistique : Manuel Goepfert

Contact : metmap@orbifly.com




SOURCES & CREDITS :

   NOAA